Time;durP1;ratioP1;P1;durP2;ratioP2;P2;SDS_P1;SDS_P2;PMS_P1;PMS_P2;Temp;Humidity;BMP_temperature;BMP_pressure;BME280_temperature;BME280_humidity;BME280_pressure;Samples;Min_cycle;Max_cycle;Signal;HPM_P1;HPM_P2
2023/07/27 00:02:02;;;;;;;;;;;19.40;99.90;;;;;;7339038;19;110410;-76
2023/07/27 00:04:29;;;;;;;;;;;19.30;99.90;;;;;;7335408;19;109484;-76
2023/07/27 00:06:56;;;;;;;;;;;19.30;99.90;;;;;;7337413;19;109007;-77
2023/07/27 00:09:27;;;;;;;;;;;19.30;99.90;;;;;;7334441;19;109578;-77
2023/07/27 00:11:55;;;;;;;;;;;19.20;99.90;;;;;;7337531;19;108717;-75
2023/07/27 00:14:22;;;;;;;;;;;19.10;99.90;;;;;;7331847;19;109386;-76
2023/07/27 00:16:49;;;;;;;;;;;19.00;99.90;;;;;;7339088;19;109390;-76
2023/07/27 00:19:16;;;;;;;;;;;19.00;99.90;;;;;;7334613;19;108637;-77
2023/07/27 00:21:43;;;;;;;;;;;19.00;99.90;;;;;;7343946;19;109738;-75
2023/07/27 00:24:10;;;;;;;;;;;19.00;99.90;;;;;;7331013;19;109232;-74
2023/07/27 00:26:37;;;;;;;;;;;19.10;99.90;;;;;;7341202;19;108620;-76
2023/07/27 00:29:04;;;;;;;;;;;19.20;99.90;;;;;;7338167;19;108824;-76
2023/07/27 00:31:32;;;;;;;;;;;19.20;99.90;;;;;;7338338;19;108542;-76
2023/07/27 00:33:59;;;;;;;;;;;19.30;99.90;;;;;;7335413;19;109753;-75
2023/07/27 00:36:27;;;;;;;;;;;19.30;99.90;;;;;;7332131;19;110265;-76
2023/07/27 00:38:54;;;;;;;;;;;19.30;99.90;;;;;;7335652;19;109033;-75
2023/07/27 00:41:23;;;;;;;;;;;19.20;99.90;;;;;;7333677;19;108883;-76
2023/07/27 00:43:50;;;;;;;;;;;19.10;99.90;;;;;;7340877;19;109459;-75
2023/07/27 00:46:18;;;;;;;;;;;19.10;99.90;;;;;;7332495;19;109679;-77
2023/07/27 00:48:45;;;;;;;;;;;19.10;99.90;;;;;;7329324;19;110678;-76
2023/07/27 00:51:12;;;;;;;;;;;19.10;99.90;;;;;;7333157;19;108809;-77
2023/07/27 00:53:39;;;;;;;;;;;19.10;99.90;;;;;;7332959;19;109359;-76
2023/07/27 00:56:06;;;;;;;;;;;19.10;99.90;;;;;;7329983;19;111034;-76
2023/07/27 00:58:34;;;;;;;;;;;19.10;99.90;;;;;;7336232;19;108925;-76
2023/07/27 01:01:02;;;;;;;;;;;19.10;99.90;;;;;;7334156;19;110432;-76
2023/07/27 01:03:29;;;;;;;;;;;19.10;99.90;;;;;;7332504;19;110196;-76
2023/07/27 01:05:56;;;;;;;;;;;19.10;99.90;;;;;;7339743;19;109610;-75
2023/07/27 01:08:24;;;;;;;;;;;19.10;99.90;;;;;;7330157;19;109710;-75
2023/07/27 01:11:00;;;;;;;;;;;19.00;99.90;;;;;;7336070;19;108698;-75
2023/07/27 01:13:27;;;;;;;;;;;19.10;99.90;;;;;;7335604;19;108752;-76
2023/07/27 01:16:00;;;;;;;;;;;18.90;99.90;;;;;;7331768;19;109698;-75
2023/07/27 01:18:39;;;;;;;;;;;18.80;99.90;;;;;;7328631;19;109383;-75
2023/07/27 01:21:28;;;;;;;;;;;18.70;99.90;;;;;;7332446;19;111729;-76
2023/07/27 01:24:08;;;;;;;;;;;18.60;99.90;;;;;;7333236;19;109904;-75
2023/07/27 01:26:49;;;;;;;;;;;18.60;99.90;;;;;;7332060;19;109401;-75
2023/07/27 01:29:19;;;;;;;;;;;18.70;99.90;;;;;;7332381;19;109178;-76
2023/07/27 01:31:47;;;;;;;;;;;18.70;99.90;;;;;;7333351;19;110569;-76
2023/07/27 01:34:17;;;;;;;;;;;18.70;99.90;;;;;;7332903;19;108628;-75
2023/07/27 01:36:48;;;;;;;;;;;18.70;99.90;;;;;;7329427;19;110218;-75
2023/07/27 01:39:17;;;;;;;;;;;18.60;99.90;;;;;;7330409;19;109472;-75
2023/07/27 01:41:44;;;;;;;;;;;18.60;99.90;;;;;;7334719;19;108774;-75
2023/07/27 01:44:12;;;;;;;;;;;18.40;99.90;;;;;;7326841;19;109417;-75
2023/07/27 01:46:40;;;;;;;;;;;18.40;99.90;;;;;;7334066;19;109174;-75
2023/07/27 01:49:09;;;;;;;;;;;18.30;99.90;;;;;;7333450;19;109105;-75
2023/07/27 01:51:45;;;;;;;;;;;18.30;99.90;;;;;;7337040;19;128499;-75
2023/07/27 01:54:13;;;;;;;;;;;18.30;99.90;;;;;;7330258;19;110209;-74
2023/07/27 01:56:41;;;;;;;;;;;18.20;99.90;;;;;;7331116;19;109177;-74
2023/07/27 01:59:09;;;;;;;;;;;18.10;99.90;;;;;;7331322;19;108746;-74
2023/07/27 02:01:37;;;;;;;;;;;18.10;99.90;;;;;;7337496;19;110491;-74
2023/07/27 02:04:05;;;;;;;;;;;18.10;99.90;;;;;;7333962;19;111824;-74
2023/07/27 02:06:32;;;;;;;;;;;18.00;99.90;;;;;;7330598;19;108784;-74
2023/07/27 02:09:00;;;;;;;;;;;17.90;99.90;;;;;;7334123;19;108599;-74
2023/07/27 02:11:27;;;;;;;;;;;17.90;99.90;;;;;;7332759;19;110137;-75
2023/07/27 02:13:59;;;;;;;;;;;17.90;99.90;;;;;;7340838;19;109919;-74
2023/07/27 02:16:26;;;;;;;;;;;17.90;99.90;;;;;;7333248;19;109759;-75
2023/07/27 02:18:55;;;;;;;;;;;17.90;99.90;;;;;;7329339;19;108690;-74
2023/07/27 02:21:24;;;;;;;;;;;17.90;99.90;;;;;;7332732;19;108901;-74
2023/07/27 02:23:51;;;;;;;;;;;17.80;99.90;;;;;;7333694;19;109133;-74
2023/07/27 02:26:18;;;;;;;;;;;17.90;99.90;;;;;;7333536;19;109137;-74
2023/07/27 02:28:45;;;;;;;;;;;17.80;99.90;;;;;;7333916;19;108334;-74
2023/07/27 02:31:13;;;;;;;;;;;17.80;99.90;;;;;;7329473;19;109468;-74
2023/07/27 02:33:40;;;;;;;;;;;17.80;99.90;;;;;;7340863;19;108960;-75
2023/07/27 02:36:07;;;;;;;;;;;17.80;99.90;;;;;;7332158;19;110193;-75
2023/07/27 02:38:34;;;;;;;;;;;17.80;99.90;;;;;;7333304;19;108706;-75
2023/07/27 02:41:01;;;;;;;;;;;17.80;99.90;;;;;;7328768;19;109241;-76
2023/07/27 02:43:28;;;;;;;;;;;17.70;99.90;;;;;;7336563;19;110375;-75
2023/07/27 02:45:59;;;;;;;;;;;17.80;99.90;;;;;;7337279;19;110099;-75
2023/07/27 02:48:32;;;;;;;;;;;17.80;99.90;;;;;;7337495;19;109114;-76
2023/07/27 02:50:59;;;;;;;;;;;17.80;99.90;;;;;;7337356;19;110265;-75
2023/07/27 02:53:26;;;;;;;;;;;17.80;99.90;;;;;;7337923;19;108869;-75
2023/07/27 02:55:55;;;;;;;;;;;17.90;99.90;;;;;;7343894;19;110521;-75
2023/07/27 02:58:22;;;;;;;;;;;18.00;99.90;;;;;;7336872;19;109192;-76
2023/07/27 03:00:50;;;;;;;;;;;17.90;99.90;;;;;;7335687;19;111793;-65
2023/07/27 03:03:18;;;;;;;;;;;17.90;99.90;;;;;;7335701;19;109304;-65
2023/07/27 03:05:45;;;;;;;;;;;18.00;99.90;;;;;;7338147;19;109110;-65
2023/07/27 03:08:12;;;;;;;;;;;18.00;99.90;;;;;;7337018;19;109284;-64
2023/07/27 03:10:39;;;;;;;;;;;18.00;99.90;;;;;;7336754;19;109164;-65
2023/07/27 03:13:06;;;;;;;;;;;18.00;99.90;;;;;;7336675;19;108862;-66
2023/07/27 03:15:33;;;;;;;;;;;18.00;99.90;;;;;;7338295;19;109058;-66
2023/07/27 03:18:00;;;;;;;;;;;18.00;99.90;;;;;;7340468;19;109839;-66
2023/07/27 03:20:27;;;;;;;;;;;18.10;99.90;;;;;;7337517;19;109271;-67
2023/07/27 03:22:54;;;;;;;;;;;18.00;99.90;;;;;;7336032;19;109112;-68
2023/07/27 03:25:21;;;;;;;;;;;18.00;99.90;;;;;;7331607;19;110932;-66
2023/07/27 03:27:48;;;;;;;;;;;18.00;99.90;;;;;;7334447;19;111018;-69
2023/07/27 03:30:15;;;;;;;;;;;18.10;99.90;;;;;;7337539;19;109208;-69
2023/07/27 03:32:42;;;;;;;;;;;18.00;99.90;;;;;;7334506;19;108820;-69
2023/07/27 03:35:10;;;;;;;;;;;18.10;99.90;;;;;;7334588;19;108991;-71
2023/07/27 03:37:37;;;;;;;;;;;18.10;99.90;;;;;;7333663;19;109066;-70
2023/07/27 03:40:05;;;;;;;;;;;18.10;99.90;;;;;;7341031;19;108963;-74
2023/07/27 03:42:32;;;;;;;;;;;18.10;99.90;;;;;;7333857;19;109727;-72
2023/07/27 03:44:59;;;;;;;;;;;18.10;99.90;;;;;;7337483;19;109243;-68
2023/07/27 03:47:26;;;;;;;;;;;18.20;99.90;;;;;;7331449;19;109788;-70
2023/07/27 03:49:54;;;;;;;;;;;18.10;99.90;;;;;;7319842;19;112558;-69
2023/07/27 03:52:21;;;;;;;;;;;18.10;99.90;;;;;;7330571;19;108840;-69
2023/07/27 03:54:48;;;;;;;;;;;18.10;99.90;;;;;;7328336;19;109453;-68
2023/07/27 03:57:15;;;;;;;;;;;18.10;99.90;;;;;;7324722;19;111021;-66
2023/07/27 03:59:42;;;;;;;;;;;18.10;99.90;;;;;;7332157;19;110244;-66
2023/07/27 04:02:09;;;;;;;;;;;18.10;99.90;;;;;;7336245;19;108970;-67
2023/07/27 04:04:36;;;;;;;;;;;18.10;99.90;;;;;;7334365;19;108727;-66
2023/07/27 04:07:04;;;;;;;;;;;18.10;99.90;;;;;;7336979;19;109112;-67
2023/07/27 04:09:31;;;;;;;;;;;18.00;99.90;;;;;;7334492;19;110799;-66
2023/07/27 04:11:58;;;;;;;;;;;18.00;99.90;;;;;;7334157;19;108772;-70
2023/07/27 04:14:25;;;;;;;;;;;18.00;99.90;;;;;;7336145;19;109073;-67
2023/07/27 04:16:53;;;;;;;;;;;18.00;99.90;;;;;;7336156;19;110746;-67
2023/07/27 04:19:20;;;;;;;;;;;18.00;99.90;;;;;;7333319;19;110332;-66
2023/07/27 04:21:47;;;;;;;;;;;18.00;99.90;;;;;;7334082;19;109708;-67
2023/07/27 04:24:14;;;;;;;;;;;18.00;99.90;;;;;;7340263;19;110122;-67
2023/07/27 04:26:41;;;;;;;;;;;18.10;99.90;;;;;;7332291;19;108720;-67
2023/07/27 04:29:11;;;;;;;;;;;18.10;99.90;;;;;;7335430;19;110252;-67
2023/07/27 04:31:39;;;;;;;;;;;18.10;99.90;;;;;;7336465;19;108449;-66
2023/07/27 04:34:06;;;;;;;;;;;18.10;99.90;;;;;;7331942;19;108810;-67
2023/07/27 04:36:35;;;;;;;;;;;18.20;99.90;;;;;;7337607;19;108995;-67
2023/07/27 04:39:02;;;;;;;;;;;18.10;99.90;;;;;;7336845;19;108883;-68
2023/07/27 04:41:29;;;;;;;;;;;18.10;99.90;;;;;;7334102;19;109259;-67
2023/07/27 04:43:58;;;;;;;;;;;18.20;99.90;;;;;;7340755;19;109292;-68
2023/07/27 04:46:25;;;;;;;;;;;18.20;99.90;;;;;;7334943;19;109763;-67
2023/07/27 04:48:52;;;;;;;;;;;18.20;99.90;;;;;;7333792;19;108995;-67
2023/07/27 04:51:19;;;;;;;;;;;18.20;99.90;;;;;;7335700;19;108725;-67
2023/07/27 04:53:46;;;;;;;;;;;18.20;99.90;;;;;;7333600;19;110528;-67
2023/07/27 04:56:13;;;;;;;;;;;18.20;99.90;;;;;;7335226;19;109385;-67
2023/07/27 04:58:40;;;;;;;;;;;18.20;99.90;;;;;;7333478;19;110051;-67
2023/07/27 05:01:07;;;;;;;;;;;18.20;99.90;;;;;;7333495;19;108840;-66
2023/07/27 05:03:34;;;;;;;;;;;18.20;99.90;;;;;;7334611;19;110191;-67
2023/07/27 05:06:02;;;;;;;;;;;18.20;99.90;;;;;;7335384;19;108616;-67
2023/07/27 05:08:29;;;;;;;;;;;18.20;99.90;;;;;;7329962;19;111355;-67
2023/07/27 05:10:58;;;;;;;;;;;18.20;99.90;;;;;;7333301;19;108965;-67
2023/07/27 05:13:25;;;;;;;;;;;18.20;99.90;;;;;;7334104;19;109228;-65
2023/07/27 05:15:52;;;;;;;;;;;18.20;99.90;;;;;;7333963;19;109222;-67
2023/07/27 05:18:19;;;;;;;;;;;18.20;99.90;;;;;;7335091;19;109516;-67
2023/07/27 05:20:47;;;;;;;;;;;18.30;99.90;;;;;;7333912;19;108780;-68
2023/07/27 05:23:14;;;;;;;;;;;18.30;99.90;;;;;;7334669;19;110229;-67
2023/07/27 05:25:41;;;;;;;;;;;18.30;99.90;;;;;;7334676;19;109092;-67
2023/07/27 05:28:08;;;;;;;;;;;18.30;99.90;;;;;;7339109;19;110737;-67
2023/07/27 05:30:35;;;;;;;;;;;18.30;99.90;;;;;;7334856;19;109122;-67
2023/07/27 05:33:02;;;;;;;;;;;18.30;99.90;;;;;;7331507;19;108658;-66
2023/07/27 05:35:30;;;;;;;;;;;18.40;99.90;;;;;;7332219;19;109150;-66
2023/07/27 05:37:57;;;;;;;;;;;18.40;99.90;;;;;;7333219;19;110109;-66
2023/07/27 05:40:24;;;;;;;;;;;18.40;99.90;;;;;;7333368;19;109181;-67
2023/07/27 05:42:51;;;;;;;;;;;18.40;99.90;;;;;;7335173;19;110017;-67
2023/07/27 05:45:18;;;;;;;;;;;18.50;99.90;;;;;;7334205;19;109084;-67
2023/07/27 05:47:45;;;;;;;;;;;18.50;99.90;;;;;;7335948;19;109175;-67
2023/07/27 05:50:12;;;;;;;;;;;18.50;99.90;;;;;;7337330;19;109036;-67
2023/07/27 05:52:39;;;;;;;;;;;18.50;99.90;;;;;;7336250;19;110240;-67
2023/07/27 05:55:07;;;;;;;;;;;18.60;99.90;;;;;;7332848;19;109897;-67
2023/07/27 05:57:34;;;;;;;;;;;18.60;99.90;;;;;;7335390;19;108809;-67
2023/07/27 06:00:01;;;;;;;;;;;18.60;99.90;;;;;;7333924;19;108402;-67
2023/07/27 06:02:33;;;;;;;;;;;18.60;99.90;;;;;;7332950;19;109471;-67
2023/07/27 06:05:01;;;;;;;;;;;18.60;99.90;;;;;;7334410;19;108632;-66
2023/07/27 06:07:28;;;;;;;;;;;18.70;99.90;;;;;;7333940;19;108413;-62
2023/07/27 06:09:55;;;;;;;;;;;18.70;99.90;;;;;;7329809;19;110231;-71
2023/07/27 06:12:22;;;;;;;;;;;18.70;99.90;;;;;;7338345;19;108348;-70
2023/07/27 06:14:49;;;;;;;;;;;18.70;99.90;;;;;;7327192;19;109160;-70
2023/07/27 06:17:17;;;;;;;;;;;18.70;99.90;;;;;;7337602;19;109671;-71
2023/07/27 06:19:44;;;;;;;;;;;18.70;99.90;;;;;;7337805;19;109026;-70
2023/07/27 06:22:11;;;;;;;;;;;18.80;99.90;;;;;;7338870;19;109673;-70
2023/07/27 06:24:38;;;;;;;;;;;18.80;99.90;;;;;;7339462;19;108955;-71
2023/07/27 06:27:05;;;;;;;;;;;18.80;99.90;;;;;;7340305;19;108893;-71
2023/07/27 06:29:33;;;;;;;;;;;18.80;99.90;;;;;;7338845;19;109102;-71
2023/07/27 06:32:00;;;;;;;;;;;18.80;99.90;;;;;;7341081;19;108682;-71
2023/07/27 06:34:28;;;;;;;;;;;18.90;99.90;;;;;;7342635;19;108970;-70
2023/07/27 06:36:55;;;;;;;;;;;18.90;99.90;;;;;;7340172;19;108973;-71
2023/07/27 06:39:22;;;;;;;;;;;18.90;99.90;;;;;;7338157;19;109154;-70
2023/07/27 06:41:49;;;;;;;;;;;18.90;99.90;;;;;;7341047;19;110110;-70
2023/07/27 06:44:16;;;;;;;;;;;18.90;99.90;;;;;;7336592;19;108698;-70
2023/07/27 06:46:43;;;;;;;;;;;18.90;99.90;;;;;;7340347;19;108801;-69
2023/07/27 06:49:11;;;;;;;;;;;18.90;99.90;;;;;;7339296;19;112712;-70
2023/07/27 06:51:38;;;;;;;;;;;18.90;99.90;;;;;;7341226;19;108770;-70
2023/07/27 06:54:05;;;;;;;;;;;18.90;99.90;;;;;;7344872;19;109865;-69
2023/07/27 06:56:34;;;;;;;;;;;19.00;99.90;;;;;;7339437;19;109005;-69
2023/07/27 06:59:02;;;;;;;;;;;19.10;99.90;;;;;;7341881;19;108931;-69
2023/07/27 07:01:29;;;;;;;;;;;19.10;99.90;;;;;;7337886;19;111070;-69
2023/07/27 07:03:56;;;;;;;;;;;19.00;99.90;;;;;;7339422;19;108761;-69
2023/07/27 07:06:23;;;;;;;;;;;19.00;99.90;;;;;;7339055;19;109147;-69
2023/07/27 07:08:51;;;;;;;;;;;19.00;99.90;;;;;;7339716;19;109126;-69
2023/07/27 07:11:18;;;;;;;;;;;19.00;99.90;;;;;;7336508;19;108602;-70
2023/07/27 07:13:46;;;;;;;;;;;19.10;99.90;;;;;;7340736;19;109428;-70
2023/07/27 07:16:13;;;;;;;;;;;19.10;99.90;;;;;;7341346;19;110261;-70
2023/07/27 07:18:41;;;;;;;;;;;19.20;99.90;;;;;;7339090;19;109724;-69
2023/07/27 07:21:08;;;;;;;;;;;19.20;99.90;;;;;;7338692;19;110049;-69
2023/07/27 07:23:35;;;;;;;;;;;19.20;99.90;;;;;;7336981;19;108893;-69
2023/07/27 07:26:02;;;;;;;;;;;19.20;99.90;;;;;;7337666;19;108532;-69
2023/07/27 07:28:30;;;;;;;;;;;19.20;99.90;;;;;;7336900;19;109205;-68
2023/07/27 07:30:57;;;;;;;;;;;19.20;99.90;;;;;;7339122;19;108965;-67
2023/07/27 07:33:24;;;;;;;;;;;19.30;99.90;;;;;;7339389;19;108759;-64
2023/07/27 07:35:51;;;;;;;;;;;19.30;99.90;;;;;;7339145;19;110052;-63
2023/07/27 07:38:18;;;;;;;;;;;19.30;99.90;;;;;;7343735;19;108577;-63
2023/07/27 07:40:46;;;;;;;;;;;19.30;99.90;;;;;;7339927;19;109120;-65
2023/07/27 07:43:13;;;;;;;;;;;19.30;99.90;;;;;;7337744;19;110686;-65
2023/07/27 07:45:40;;;;;;;;;;;19.40;99.90;;;;;;7340587;19;108850;-64
2023/07/27 07:48:07;;;;;;;;;;;19.40;99.90;;;;;;7337502;19;109413;-68
2023/07/27 07:50:36;;;;;;;;;;;19.40;99.90;;;;;;7337613;19;108802;-64
2023/07/27 07:53:05;;;;;;;;;;;19.50;99.90;;;;;;7338130;19;109152;-66
2023/07/27 07:55:36;;;;;;;;;;;19.50;99.90;;;;;;7339022;19;109919;-66
2023/07/27 07:58:03;;;;;;;;;;;19.50;99.90;;;;;;7337559;19;108601;-66
2023/07/27 08:00:30;;;;;;;;;;;19.50;99.90;;;;;;7341726;19;109129;-67
2023/07/27 08:02:57;;;;;;;;;;;19.40;99.90;;;;;;7338962;19;108994;-67
2023/07/27 08:05:25;;;;;;;;;;;19.40;99.90;;;;;;7337974;19;108759;-66
2023/07/27 08:07:52;;;;;;;;;;;19.50;99.90;;;;;;7336598;19;110136;-67
2023/07/27 08:10:19;;;;;;;;;;;19.50;99.90;;;;;;7335147;19;109085;-66
2023/07/27 08:12:49;;;;;;;;;;;19.50;99.90;;;;;;7337300;19;109505;-67
2023/07/27 08:15:17;;;;;;;;;;;19.50;99.90;;;;;;7333932;19;109270;-67
2023/07/27 08:17:44;;;;;;;;;;;19.60;99.90;;;;;;7338722;19;108602;-67
2023/07/27 08:20:12;;;;;;;;;;;19.50;99.90;;;;;;7334177;19;110037;-67
2023/07/27 08:22:39;;;;;;;;;;;19.50;99.90;;;;;;7340953;19;109931;-67
2023/07/27 08:25:06;;;;;;;;;;;19.50;99.90;;;;;;7337741;19;108129;-67
2023/07/27 08:27:48;;;;;;;;;;;19.50;99.90;;;;;;7336232;19;109512;-67
2023/07/27 08:30:15;;;;;;;;;;;19.50;99.90;;;;;;7336956;19;108839;-67
2023/07/27 08:32:45;;;;;;;;;;;19.50;99.90;;;;;;7336873;19;109034;-67
2023/07/27 08:35:12;;;;;;;;;;;19.50;99.90;;;;;;7333444;19;109059;-67
2023/07/27 08:37:39;;;;;;;;;;;19.50;99.90;;;;;;7336486;19;110005;-67
2023/07/27 08:40:08;;;;;;;;;;;19.60;99.90;;;;;;7336859;19;109357;-66
2023/07/27 08:42:36;;;;;;;;;;;19.60;99.90;;;;;;7335990;19;109300;-67
2023/07/27 08:45:05;;;;;;;;;;;19.60;99.90;;;;;;7342245;19;109529;-67
2023/07/27 08:47:33;;;;;;;;;;;19.60;99.90;;;;;;7334509;19;109428;-67
2023/07/27 08:50:02;;;;;;;;;;;19.70;99.90;;;;;;7333322;19;108989;-67
2023/07/27 08:52:29;;;;;;;;;;;19.70;99.90;;;;;;7334387;19;108887;-67
2023/07/27 08:54:57;;;;;;;;;;;19.70;99.90;;;;;;7334141;19;110138;-67
2023/07/27 08:57:24;;;;;;;;;;;19.70;99.90;;;;;;7334898;19;108935;-67
2023/07/27 08:59:51;;;;;;;;;;;19.70;99.90;;;;;;7332554;19;108836;-67
2023/07/27 09:02:18;;;;;;;;;;;19.70;99.90;;;;;;7333045;19;111815;-67
2023/07/27 09:04:45;;;;;;;;;;;19.70;99.90;;;;;;7339813;19;108711;-67
2023/07/27 09:07:13;;;;;;;;;;;19.70;99.90;;;;;;7334919;19;110134;-67
2023/07/27 09:09:40;;;;;;;;;;;19.80;99.90;;;;;;7333471;19;108571;-67
2023/07/27 09:12:07;;;;;;;;;;;19.90;99.90;;;;;;7334655;19;108597;-67
2023/07/27 09:14:38;;;;;;;;;;;20.00;99.90;;;;;;7332671;19;109431;-67
2023/07/27 09:17:05;;;;;;;;;;;20.00;99.90;;;;;;7337077;19;108710;-67
2023/07/27 09:19:38;;;;;;;;;;;20.00;99.90;;;;;;7332875;19;108893;-67
2023/07/27 09:22:06;;;;;;;;;;;20.10;99.90;;;;;;7333416;19;110053;-66
2023/07/27 09:24:34;;;;;;;;;;;20.10;99.90;;;;;;7334577;19;109003;-67
2023/07/27 09:27:02;;;;;;;;;;;20.10;99.90;;;;;;7341136;19;109173;-68
2023/07/27 09:29:30;;;;;;;;;;;20.20;99.90;;;;;;7332954;19;108811;-67
2023/07/27 09:32:00;;;;;;;;;;;20.30;99.90;;;;;;7334292;19;109518;-67
2023/07/27 09:34:29;;;;;;;;;;;20.30;99.90;;;;;;7333595;19;109664;-67
2023/07/27 09:36:56;;;;;;;;;;;20.20;99.90;;;;;;7334978;19;108830;-67
2023/07/27 09:39:27;;;;;;;;;;;20.20;99.90;;;;;;7334335;19;113525;-67
2023/07/27 09:41:54;;;;;;;;;;;20.20;99.90;;;;;;7332305;19;110129;-67
2023/07/27 09:44:21;;;;;;;;;;;20.20;99.90;;;;;;7333060;19;108510;-67
2023/07/27 09:46:49;;;;;;;;;;;20.20;99.90;;;;;;7333464;19;108740;-70
2023/07/27 09:49:17;;;;;;;;;;;20.20;99.90;;;;;;7338112;19;109748;-67
2023/07/27 09:51:45;;;;;;;;;;;20.20;99.90;;;;;;7330273;19;110956;-67
2023/07/27 09:54:13;;;;;;;;;;;20.10;99.90;;;;;;7332839;19;110361;-67
2023/07/27 09:56:40;;;;;;;;;;;20.10;99.90;;;;;;7333340;19;108812;-67
2023/07/27 09:59:07;;;;;;;;;;;20.10;99.90;;;;;;7336028;19;109020;-68
2023/07/27 10:01:34;;;;;;;;;;;20.20;99.90;;;;;;7332861;19;110172;-68
2023/07/27 10:04:04;;;;;;;;;;;20.20;99.90;;;;;;7336235;19;109999;-67
2023/07/27 10:06:32;;;;;;;;;;;20.20;99.90;;;;;;7332241;19;108966;-69
2023/07/27 10:09:00;;;;;;;;;;;20.20;99.90;;;;;;7331121;19;110116;-67
2023/07/27 10:11:47;;;;;;;;;;;20.30;99.90;;;;;;7339529;19;109444;-67
2023/07/27 10:14:18;;;;;;;;;;;20.30;99.90;;;;;;7330661;19;109210;-69
2023/07/27 10:17:00;;;;;;;;;;;20.30;99.90;;;;;;7337106;19;109542;-68
2023/07/27 10:19:42;;;;;;;;;;;20.30;99.90;;;;;;7335156;19;108960;-67
2023/07/27 10:22:14;;;;;;;;;;;20.30;99.90;;;;;;7331402;19;110515;-67
2023/07/27 10:24:48;;;;;;;;;;;20.40;99.90;;;;;;7333402;19;110238;-67
2023/07/27 10:27:16;;;;;;;;;;;20.40;99.90;;;;;;7329762;19;109471;-69
2023/07/27 10:30:02;;;;;;;;;;;20.50;99.90;;;;;;7334167;19;110275;-70
2023/07/27 10:32:29;;;;;;;;;;;20.50;99.90;;;;;;7334350;19;108503;-77
2023/07/27 10:35:05;;;;;;;;;;;20.60;99.90;;;;;;7337600;19;109499;-69
2023/07/27 10:37:52;;;;;;;;;;;20.70;99.90;;;;;;7335248;19;109619;-69
2023/07/27 10:40:26;;;;;;;;;;;20.80;99.90;;;;;;7334170;19;108373;-75
2023/07/27 10:42:57;;;;;;;;;;;20.80;99.90;;;;;;7331247;19;109132;-72
2023/07/27 10:45:25;;;;;;;;;;;20.80;99.90;;;;;;7332328;19;108831;-75
2023/07/27 10:47:56;;;;;;;;;;;20.80;99.90;;;;;;7329141;19;108599;-71
2023/07/27 10:50:23;;;;;;;;;;;20.80;99.90;;;;;;7330793;19;109637;-71
2023/07/27 10:52:53;;;;;;;;;;;20.80;99.90;;;;;;7329868;19;109324;-74
2023/07/27 10:55:21;;;;;;;;;;;20.80;99.90;;;;;;7339073;19;108627;-71
2023/07/27 10:57:50;;;;;;;;;;;20.80;99.90;;;;;;7331988;19;108082;-77
2023/07/27 11:00:17;;;;;;;;;;;20.90;99.90;;;;;;7333280;19;108557;-70
2023/07/27 11:02:45;;;;;;;;;;;20.90;99.90;;;;;;7332025;19;109388;-76
2023/07/27 11:05:12;;;;;;;;;;;20.90;99.90;;;;;;7339625;19;108885;-72
2023/07/27 11:07:40;;;;;;;;;;;20.90;99.90;;;;;;7340495;19;108792;-74
2023/07/27 11:10:12;;;;;;;;;;;20.90;99.90;;;;;;7339456;19;109149;-77
2023/07/27 11:12:49;;;;;;;;;;;20.90;99.90;;;;;;7333107;19;109300;-75
2023/07/27 11:15:20;;;;;;;;;;;20.90;99.90;;;;;;7339257;19;108716;-77
2023/07/27 11:17:48;;;;;;;;;;;21.00;99.90;;;;;;7342729;19;109333;-74
2023/07/27 11:20:17;;;;;;;;;;;21.00;99.90;;;;;;7340448;19;108644;-76
2023/07/27 11:22:46;;;;;;;;;;;21.00;99.90;;;;;;7334758;19;110031;-74
2023/07/27 11:25:13;;;;;;;;;;;21.10;99.90;;;;;;7335973;19;109111;-76
2023/07/27 11:27:40;;;;;;;;;;;21.10;99.90;;;;;;7333375;19;108956;-73
2023/07/27 11:30:12;;;;;;;;;;;21.10;99.90;;;;;;7336132;19;110547;-75
2023/07/27 11:32:39;;;;;;;;;;;21.10;99.90;;;;;;7329364;19;110150;-72
2023/07/27 11:35:07;;;;;;;;;;;21.20;99.90;;;;;;7337076;19;108711;-73
2023/07/27 11:37:34;;;;;;;;;;;21.10;99.90;;;;;;7331414;19;109853;-73
2023/07/27 11:40:01;;;;;;;;;;;21.10;99.90;;;;;;7338356;19;109626;-77
2023/07/27 11:42:29;;;;;;;;;;;21.10;99.90;;;;;;7331980;19;109109;-74
2023/07/27 11:44:56;;;;;;;;;;;21.10;99.90;;;;;;7334257;19;109502;-70
2023/07/27 11:49:53;;;;;;;;;;;21.10;99.90;;;;;;7333912;19;108893;-72
2023/07/27 11:52:24;;;;;;;;;;;21.10;99.90;;;;;;7332787;19;109488;-70
2023/07/27 11:54:52;;;;;;;;;;;21.10;99.90;;;;;;7335221;19;110451;-73
2023/07/27 11:57:24;;;;;;;;;;;21.10;99.90;;;;;;7336585;19;109152;-72
2023/07/27 12:00:14;;;;;;;;;;;21.10;99.90;;;;;;7338514;19;108391;-74
2023/07/27 12:02:45;;;;;;;;;;;21.10;99.90;;;;;;7342363;19;108220;-74
2023/07/27 12:05:13;;;;;;;;;;;21.10;99.90;;;;;;7331665;19;109009;-72
2023/07/27 12:07:43;;;;;;;;;;;21.10;99.90;;;;;;7335681;19;110633;-71
2023/07/27 12:13:09;;;;;;;;;;;21.10;99.90;;;;;;7342344;19;109259;-85
2023/07/27 12:15:43;;;;;;;;;;;21.10;99.90;;;;;;7344216;19;108316;-87
2023/07/27 12:18:31;;;;;;;;;;;21.10;99.90;;;;;;7341295;19;112871;-86
2023/07/27 12:21:16;;;;;;;;;;;21.00;99.90;;;;;;7342683;19;109183;-86
2023/07/27 12:26:32;;;;;;;;;;;21.10;99.90;;;;;;7335613;19;109193;-71
2023/07/27 12:28:59;;;;;;;;;;;21.10;99.90;;;;;;7335363;19;108829;-71
2023/07/27 12:31:30;;;;;;;;;;;21.10;99.90;;;;;;7330763;19;109666;-70
2023/07/27 12:34:00;;;;;;;;;;;21.10;99.90;;;;;;7335502;19;109915;-71
2023/07/27 12:36:27;;;;;;;;;;;21.10;99.90;;;;;;7337360;19;109150;-70
2023/07/27 12:38:54;;;;;;;;;;;21.10;99.90;;;;;;7335616;19;110192;-70
2023/07/27 12:41:21;;;;;;;;;;;21.20;99.90;;;;;;7337489;19;109756;-71
2023/07/27 12:43:48;;;;;;;;;;;21.20;99.90;;;;;;7333439;19;109956;-70
2023/07/27 12:46:16;;;;;;;;;;;21.20;99.90;;;;;;7334443;19;109158;-71
2023/07/27 12:48:43;;;;;;;;;;;21.20;99.90;;;;;;7334659;19;109173;-71
2023/07/27 12:51:11;;;;;;;;;;;21.10;99.90;;;;;;7327938;19;110221;-71
2023/07/27 12:53:38;;;;;;;;;;;21.10;99.90;;;;;;7333103;19;110663;-71
2023/07/27 12:56:08;;;;;;;;;;;21.10;99.90;;;;;;7332812;19;110412;-71
2023/07/27 12:58:35;;;;;;;;;;;21.10;99.90;;;;;;7334411;19;109783;-71
2023/07/27 13:01:02;;;;;;;;;;;21.10;99.90;;;;;;7330457;19;110819;-70
2023/07/27 13:03:30;;;;;;;;;;;21.10;99.90;;;;;;7335505;19;110015;-70
2023/07/27 13:05:57;;;;;;;;;;;21.10;99.90;;;;;;7332094;19;110287;-72
2023/07/27 13:08:24;;;;;;;;;;;21.10;99.90;;;;;;7335317;19;110497;-71
2023/07/27 13:10:55;;;;;;;;;;;21.20;99.90;;;;;;7333385;19;109883;-71
2023/07/27 13:13:22;;;;;;;;;;;21.10;99.90;;;;;;7329991;19;108478;-70
2023/07/27 13:15:50;;;;;;;;;;;21.10;99.90;;;;;;7332844;19;110179;-71
2023/07/27 13:18:17;;;;;;;;;;;21.20;99.90;;;;;;7322824;19;110000;-71
2023/07/27 13:20:44;;;;;;;;;;;21.20;99.90;;;;;;7332422;19;110099;-71
2023/07/27 13:23:11;;;;;;;;;;;21.10;99.90;;;;;;7332079;19;110225;-70
2023/07/27 13:25:38;;;;;;;;;;;21.20;99.90;;;;;;7334027;19;109205;-70
2023/07/27 13:28:05;;;;;;;;;;;21.10;99.90;;;;;;7330788;19;108845;-70
2023/07/27 13:30:32;;;;;;;;;;;21.10;99.90;;;;;;7340407;19;108837;-70
2023/07/27 13:33:01;;;;;;;;;;;21.10;99.90;;;;;;7330994;19;109498;-70
2023/07/27 13:35:28;;;;;;;;;;;21.10;99.90;;;;;;7332558;19;110472;-70
2023/07/27 13:37:56;;;;;;;;;;;21.10;99.90;;;;;;7331897;19;110057;-70
2023/07/27 13:40:23;;;;;;;;;;;21.10;99.90;;;;;;7330820;19;108693;-71
2023/07/27 13:42:51;;;;;;;;;;;21.10;99.90;;;;;;7334034;19;109869;-71
2023/07/27 13:45:18;;;;;;;;;;;21.20;99.90;;;;;;7331406;19;109596;-71
2023/07/27 13:47:46;;;;;;;;;;;21.20;99.90;;;;;;7332673;19;109059;-70
2023/07/27 13:50:33;;;;;;;;;;;21.20;99.90;;;;;;7331953;19;108726;-70
2023/07/27 13:53:00;;;;;;;;;;;21.20;99.90;;;;;;7339354;19;109125;-71
2023/07/27 13:55:27;;;;;;;;;;;21.20;99.90;;;;;;7332771;19;108442;-70
2023/07/27 13:57:54;;;;;;;;;;;21.20;99.90;;;;;;7330244;19;109940;-70
2023/07/27 14:00:22;;;;;;;;;;;21.20;99.90;;;;;;7331415;19;108325;-70
2023/07/27 14:02:49;;;;;;;;;;;21.20;99.90;;;;;;7331423;19;111051;-70
2023/07/27 14:05:17;;;;;;;;;;;21.20;99.90;;;;;;7331412;19;109191;-70
2023/07/27 14:07:44;;;;;;;;;;;21.20;99.90;;;;;;7330049;19;110833;-70
2023/07/27 14:10:12;;;;;;;;;;;21.20;99.90;;;;;;7331781;19;112259;-70
2023/07/27 14:12:39;;;;;;;;;;;21.20;99.90;;;;;;7328828;19;110590;-70
2023/07/27 14:15:06;;;;;;;;;;;21.20;99.90;;;;;;7336340;19;109227;-70
2023/07/27 14:17:34;;;;;;;;;;;21.10;99.90;;;;;;7332662;19;110698;-70
2023/07/27 14:20:01;;;;;;;;;;;21.10;99.90;;;;;;7329398;19;110025;-70